createdAt,value
2019-02-11T00:02:59.871Z,1.46
2019-02-11T00:07:07.310Z,1.47
2019-02-11T00:11:15.012Z,1.45
2019-02-11T00:15:22.508Z,1.67
2019-02-11T00:19:29.908Z,1.63
2019-02-11T00:23:37.493Z,1.73
2019-02-11T00:27:46.380Z,1.87
2019-02-11T00:31:53.947Z,1.81
2019-02-11T00:36:01.838Z,1.71
2019-02-11T00:40:09.767Z,1.70
2019-02-11T00:44:17.152Z,1.71
2019-02-11T00:48:25.058Z,1.72
2019-02-11T00:52:32.651Z,1.72
2019-02-11T00:56:40.552Z,1.62
2019-02-11T01:00:48.155Z,1.65
2019-02-11T01:04:55.561Z,1.72
2019-02-11T01:09:04.478Z,1.69
2019-02-11T01:13:12.370Z,1.70
2019-02-11T01:17:19.974Z,1.75
2019-02-11T01:21:27.862Z,1.72
2019-02-11T01:25:35.785Z,1.68
2019-02-11T01:29:43.151Z,1.69
2019-02-11T01:33:51.048Z,1.76
2019-02-11T01:37:58.664Z,1.72
2019-02-11T01:42:06.174Z,1.77
2019-02-11T01:46:14.084Z,1.87
2019-02-11T01:50:21.474Z,1.87
2019-02-11T01:54:28.888Z,1.88
2019-02-11T01:58:36.779Z,1.94
2019-02-11T02:02:44.183Z,1.97
2019-02-11T02:06:52.065Z,1.97
2019-02-11T02:10:59.940Z,1.97
2019-02-11T02:15:07.682Z,2.01
2019-02-11T02:19:15.139Z,1.99
2019-02-11T02:23:22.627Z,2.01
2019-02-11T02:27:29.996Z,2.09
2019-02-11T02:31:37.895Z,2.06
2019-02-11T02:35:45.779Z,2.05
2019-02-11T02:39:53.158Z,2.05
2019-02-11T02:44:01.052Z,2.01
2019-02-11T02:48:08.956Z,1.97
2019-02-11T02:52:16.341Z,1.98
2019-02-11T02:56:24.222Z,1.96
2019-02-11T03:00:31.718Z,1.97
2019-02-11T03:04:39.100Z,2.05
2019-02-11T03:08:46.675Z,2.16
2019-02-11T03:12:54.166Z,2.20
2019-02-11T03:17:01.659Z,2.28
2019-02-11T03:21:10.010Z,2.37
2019-02-11T03:25:17.509Z,2.43
2019-02-11T03:29:25.399Z,2.42
2019-02-11T03:33:33.287Z,2.35
2019-02-11T03:37:40.687Z,2.60
2019-02-11T03:41:48.598Z,2.62
2019-02-11T03:45:56.479Z,2.83
2019-02-11T03:50:04.010Z,2.90
2019-02-11T03:54:12.183Z,2.98
2019-02-11T03:58:20.180Z,2.80
2019-02-11T04:02:27.548Z,2.92
2019-02-11T04:06:35.443Z,3.00
2019-02-11T06:56:12.724Z,5.64
2019-02-11T07:00:21.340Z,7.47
2019-02-11T07:04:29.550Z,6.77
2019-02-11T07:08:37.114Z,6.72
2019-02-11T07:12:45.421Z,6.49
2019-02-11T07:16:53.605Z,6.43
2019-02-11T07:21:01.423Z,6.43
2019-02-11T07:25:09.990Z,6.53
2019-02-11T07:29:18.314Z,6.57
2019-02-11T07:33:26.512Z,6.55
2019-02-11T07:37:34.888Z,7.19
2019-02-11T07:42:02.517Z,7.09
2019-02-11T07:46:27.297Z,7.34
2019-02-11T07:50:35.629Z,7.48
2019-02-11T07:54:44.114Z,7.32
2019-02-11T07:58:51.914Z,7.52
2019-02-11T08:03:00.516Z,7.65
2019-02-11T08:07:08.599Z,7.91
2019-02-11T08:11:20.267Z,7.96
2019-02-11T08:15:28.585Z,8.10
2019-02-11T08:19:36.801Z,8.52
2019-02-11T08:23:44.568Z,8.65
2019-02-11T08:27:54.781Z,8.70
2019-02-11T08:32:03.039Z,9.33
2019-02-11T08:36:11.087Z,9.82
2019-02-11T08:40:18.820Z,9.62
2019-02-11T08:44:26.631Z,9.76
2019-02-11T08:48:34.663Z,9.79
2019-02-11T08:52:42.867Z,10.43
2019-02-11T08:56:50.465Z,10.68
2019-02-11T09:00:58.886Z,10.49
2019-02-11T09:05:08.034Z,11.07
2019-02-11T09:09:15.942Z,11.70
2019-02-11T09:13:24.070Z,11.85
2019-02-11T09:17:31.867Z,11.53
2019-02-11T09:21:39.468Z,11.78
2019-02-11T09:25:47.381Z,12.04
2019-02-11T09:29:55.285Z,12.09
2019-02-11T09:34:02.910Z,12.44
2019-02-11T09:38:11.222Z,12.43
2019-02-11T09:42:18.922Z,12.76
2019-02-11T09:46:26.647Z,13.25
2019-02-11T09:50:37.928Z,13.47
2019-02-11T09:54:46.321Z,13.61
2019-02-11T09:58:54.415Z,13.94
2019-02-11T10:03:02.467Z,14.06
2019-02-11T10:07:10.092Z,14.43
2019-02-11T10:11:17.912Z,14.55
2019-02-11T10:15:25.821Z,14.12
2019-02-11T10:19:33.427Z,13.72
2019-02-11T10:23:41.726Z,14.00
2019-02-11T10:27:49.704Z,13.96
2019-02-11T10:31:57.663Z,14.45
2019-02-11T10:36:05.592Z,14.98
2019-02-11T10:40:13.972Z,15.30
2019-02-11T10:44:21.570Z,14.80
2019-02-11T10:48:30.475Z,14.90
2019-02-11T10:52:38.021Z,14.62
2019-02-11T10:56:51.956Z,14.88
2019-02-11T11:01:00.093Z,14.70
2019-02-11T11:05:08.822Z,15.19
2019-02-11T11:09:17.416Z,15.05
2019-02-11T11:13:27.563Z,14.63
2019-02-11T11:17:35.484Z,14.22
2019-02-11T11:21:44.303Z,13.99
2019-02-11T11:25:52.689Z,13.77
2019-02-11T11:30:00.468Z,13.88
2019-02-11T11:34:08.311Z,13.63
2019-02-11T11:38:16.408Z,13.98
2019-02-11T11:42:24.639Z,14.09
2019-02-11T11:46:46.735Z,14.07
2019-02-11T11:50:47.934Z,13.87
2019-02-11T11:54:55.863Z,13.90
2019-02-11T11:59:04.022Z,13.92
2019-02-11T12:03:11.728Z,14.25
2019-02-11T12:07:19.933Z,14.94
2019-02-11T12:11:28.149Z,14.88
2019-02-11T12:15:36.006Z,14.57
2019-02-11T12:19:44.308Z,14.56
2019-02-11T12:23:52.506Z,14.29
2019-02-11T12:28:00.219Z,14.46
2019-02-11T12:32:08.430Z,14.96
2019-02-11T12:36:16.751Z,15.19
2019-02-11T12:40:24.458Z,14.90
2019-02-11T12:44:32.372Z,15.06
2019-02-11T12:48:40.188Z,15.14
2019-02-11T12:52:48.714Z,15.16
2019-02-11T12:56:56.928Z,15.05
2019-02-11T13:01:05.086Z,15.07
2019-02-11T13:05:12.802Z,14.77
2019-02-11T13:09:20.755Z,14.54
2019-02-11T13:13:28.592Z,14.51
2019-02-11T13:17:36.400Z,14.20
2019-02-11T13:21:44.206Z,14.23
2019-02-11T13:25:52.014Z,13.88
2019-02-11T13:29:59.881Z,13.74
2019-02-11T13:34:07.826Z,13.73
2019-02-11T13:38:15.849Z,13.42
2019-02-11T13:42:24.184Z,13.12
2019-02-11T13:46:31.965Z,13.00
2019-02-11T13:50:39.634Z,12.93
2019-02-11T13:54:47.585Z,12.73
2019-02-11T13:58:55.615Z,12.93
2019-02-11T14:03:04.773Z,13.12
2019-02-11T14:07:14.939Z,13.20
2019-02-11T14:11:22.852Z,13.14
2019-02-11T14:15:30.649Z,13.18
2019-02-11T14:19:38.693Z,13.07
2019-02-11T14:23:46.977Z,12.94
2019-02-11T14:27:55.239Z,12.78
2019-02-11T14:32:03.520Z,12.74
2019-02-11T14:36:13.484Z,12.53
2019-02-11T14:40:23.299Z,12.68
2019-02-11T14:44:34.809Z,12.43
2019-02-11T14:48:46.019Z,12.52
2019-02-11T14:52:57.548Z,12.62
2019-02-11T14:57:05.745Z,12.40
2019-02-11T15:01:14.064Z,12.06
2019-02-11T15:05:21.869Z,11.88
2019-02-11T15:09:30.193Z,11.73
2019-02-11T15:13:37.744Z,11.78
2019-02-11T15:17:45.491Z,11.55
2019-02-11T15:21:53.723Z,11.38
2019-02-11T15:26:01.440Z,11.24
2019-02-11T15:30:11.622Z,11.21
2019-02-11T15:34:20.310Z,11.20
2019-02-11T15:38:28.144Z,10.87
2019-02-11T15:42:36.366Z,10.69
2019-02-11T15:46:44.468Z,10.51
2019-02-11T15:50:52.180Z,10.32
2019-02-11T15:55:00.401Z,10.10
2019-02-11T15:59:09.285Z,9.93
2019-02-11T16:03:17.048Z,9.88
2019-02-11T16:07:25.315Z,9.79
2019-02-11T16:11:33.489Z,9.60
2019-02-11T16:15:40.986Z,9.46
2019-02-11T16:19:48.938Z,9.36
2019-02-11T16:23:56.921Z,9.30
2019-02-11T16:28:04.833Z,9.17
2019-02-11T16:32:16.077Z,9.26
2019-02-11T16:36:23.968Z,9.22
2019-02-11T16:40:31.654Z,8.99
2019-02-11T16:44:39.573Z,9.18
2019-02-11T16:48:47.276Z,9.34
2019-02-11T16:52:55.179Z,9.33
2019-02-11T16:57:03.108Z,9.39
2019-02-11T17:01:10.829Z,9.33
2019-02-11T17:05:18.530Z,9.13
2019-02-11T17:09:31.416Z,9.03
2019-02-11T17:13:39.238Z,9.20
2019-02-11T17:17:47.271Z,8.99
2019-02-11T17:21:55.081Z,8.95
2019-02-11T17:26:02.776Z,8.93
2019-02-11T17:30:13.774Z,9.13
2019-02-11T17:34:22.042Z,9.29
2019-02-11T17:38:29.798Z,9.23
2019-02-11T17:42:38.031Z,9.16
2019-02-11T17:46:46.032Z,9.07
2019-02-11T17:50:53.836Z,8.95
2019-02-11T17:55:02.171Z,8.96
2019-02-11T17:59:10.512Z,8.94
2019-02-11T18:03:18.285Z,8.79
2019-02-11T18:07:26.215Z,8.53
2019-02-11T18:11:34.024Z,8.62
2019-02-11T18:15:42.188Z,8.46
2019-02-11T18:19:50.156Z,8.31
2019-02-11T18:23:57.769Z,8.23
2019-02-11T18:28:06.079Z,8.09
2019-02-11T18:32:15.008Z,7.98
2019-02-11T18:36:22.466Z,7.91
2019-02-11T18:40:30.432Z,7.83
2019-02-11T18:44:38.352Z,7.76
2019-02-11T18:48:46.065Z,7.59
2019-02-11T18:52:53.966Z,7.56
2019-02-11T18:57:01.886Z,7.60
2019-02-11T19:01:09.676Z,7.51
2019-02-11T19:05:18.534Z,7.55
2019-02-11T19:09:26.351Z,7.49
2019-02-11T19:13:34.085Z,7.49
2019-02-11T19:17:42.349Z,7.47
2019-02-11T19:21:49.987Z,7.32
2019-02-11T19:25:58.388Z,7.25
2019-02-11T19:30:08.268Z,7.23
2019-02-11T19:34:16.881Z,7.11
2019-02-11T19:38:25.218Z,7.13
2019-02-11T19:42:33.847Z,7.03
2019-02-11T19:46:41.649Z,7.04
2019-02-11T19:50:49.984Z,7.28
2019-02-11T19:54:58.076Z,7.15
2019-02-11T19:59:06.040Z,7.36
2019-02-11T20:03:15.544Z,7.44
2019-02-11T20:07:23.754Z,7.64
2019-02-11T20:11:31.576Z,7.89
2019-02-11T20:15:39.810Z,8.06
2019-02-11T20:19:47.586Z,8.18
2019-02-11T20:23:56.343Z,8.26
2019-02-11T20:28:04.667Z,8.38
2019-02-11T20:32:12.309Z,8.45
2019-02-11T20:36:21.255Z,8.35
2019-02-11T20:40:29.707Z,8.15
2019-02-11T20:44:37.964Z,7.87
2019-02-11T20:48:45.552Z,7.94
2019-02-11T20:52:53.762Z,7.67
2019-02-11T20:57:03.227Z,7.58
2019-02-11T21:01:11.240Z,7.63
2019-02-11T21:05:19.532Z,7.52
2019-02-11T21:09:27.570Z,7.81
2019-02-11T21:13:36.298Z,7.97
2019-02-11T21:17:44.425Z,8.09
2019-02-11T21:21:52.241Z,8.19
2019-02-11T21:26:00.343Z,8.80
2019-02-11T21:30:10.018Z,9.21
2019-02-11T21:34:18.630Z,9.28
2019-02-11T21:38:26.944Z,9.69
2019-02-11T21:42:35.065Z,9.78
2019-02-11T21:46:43.284Z,9.62
2019-02-11T21:50:51.093Z,9.78
2019-02-11T21:54:59.232Z,9.50
2019-02-11T21:59:07.110Z,9.59
2019-02-11T22:03:16.274Z,9.49
2019-02-11T22:07:24.737Z,9.67
2019-02-11T22:11:32.689Z,9.09
2019-02-11T22:15:40.930Z,9.03
2019-02-11T22:19:48.733Z,9.22
2019-02-11T22:23:56.784Z,9.09
2019-02-11T22:28:04.965Z,9.11
2019-02-11T22:32:12.663Z,9.11
2019-02-11T22:36:21.050Z,9.11
2019-02-11T22:40:29.498Z,9.22
2019-02-11T22:44:37.432Z,8.84
2019-02-11T22:48:45.746Z,8.57
2019-02-11T22:52:54.058Z,8.53
2019-02-11T22:57:01.685Z,8.64
2019-02-11T23:01:10.815Z,8.57
2019-02-11T23:05:18.839Z,8.51
2019-02-11T23:09:26.532Z,8.28
2019-02-11T23:13:34.945Z,8.08
2019-02-11T23:17:43.285Z,7.93
2019-02-11T23:21:51.189Z,7.65
2019-02-11T23:25:59.508Z,7.44
2019-02-11T23:30:13.622Z,7.61
2019-02-11T23:34:17.606Z,7.99
2019-02-11T23:38:25.611Z,8.19
2019-02-11T23:42:33.612Z,8.30
2019-02-11T23:46:41.864Z,8.02
2019-02-11T23:50:50.183Z,8.34
2019-02-11T23:54:58.190Z,8.50
2019-02-11T23:59:06.827Z,8.35
